Time;durP1;ratioP1;P1;durP2;ratioP2;P2;SDS_P1;SDS_P2;PMS_P1;PMS_P2;Temp;Humidity;BMP_temperature;BMP_pressure;BME280_temperature;BME280_humidity;BME280_pressure;Samples;Min_cycle;Max_cycle;Signal;HPM_P1;HPM_P2
2022/07/26 00:01:57;;;;;;;12.58;4.97;;;;;;;20.48;51.67;98722.39;1647608;86;21058;-84
2022/07/26 00:04:24;;;;;;;9.28;5.08;;;;;;;20.44;51.99;98723.08;1662170;86;21061;-84
2022/07/26 00:06:51;;;;;;;8.68;5.00;;;;;;;20.44;51.79;98725.72;1662220;86;21074;-84
2022/07/26 00:09:18;;;;;;;10.23;5.28;;;;;;;20.42;51.62;98721.03;1662268;86;20999;-85
2022/07/26 00:11:44;;;;;;;8.25;4.87;;;;;;;20.39;52.58;98715.50;1661846;86;21064;-84
2022/07/26 00:14:11;;;;;;;14.05;5.10;;;;;;;20.37;52.16;98717.41;1662257;86;21057;-84
2022/07/26 00:16:38;;;;;;;9.23;5.10;;;;;;;20.34;52.36;98718.94;1660822;85;21117;-84
2022/07/26 00:19:06;;;;;;;11.68;5.03;;;;;;;20.33;52.49;98711.95;1661816;85;21038;-84
2022/07/26 00:21:35;;;;;;;9.00;5.08;;;;;;;20.30;52.13;98712.67;1664328;85;21067;-82
2022/07/26 00:24:07;;;;;;;9.88;5.00;;;;;;;20.28;53.00;98712.77;1664805;85;21055;-83
2022/07/26 00:26:33;;;;;;;8.53;4.80;;;;;;;20.08;53.65;98684.33;1654630;86;21012;-84
2022/07/26 00:29:02;;;;;;;12.95;4.80;;;;;;;20.21;52.58;98704.91;1654220;87;21566;-83
2022/07/26 00:31:30;;;;;;;12.28;4.83;;;;;;;20.15;51.23;98708.83;1654458;86;21117;-83
2022/07/26 00:33:57;;;;;;;21.80;5.70;;;;;;;20.08;52.24;98710.71;1637383;86;21515;-84
2022/07/26 00:36:23;;;;;;;16.57;5.70;;;;;;;20.05;52.57;98713.07;1652288;87;21038;-83
2022/07/26 00:38:50;;;;;;;25.37;5.40;;;;;;;20.00;52.23;98709.92;1661889;86;21050;-83
2022/07/26 00:41:17;;;;;;;16.02;5.40;;;;;;;19.97;53.06;98709.64;1654192;86;21045;-82
2022/07/26 00:43:58;;;;;;;16.40;5.15;;;;;;;19.92;54.07;98710.94;1654030;87;21555;-83
2022/07/26 00:46:25;;;;;;;9.13;4.78;;;;;;;19.86;54.00;98707.77;1652850;86;21554;-81
2022/07/26 00:48:52;;;;;;;11.93;4.97;;;;;;;19.77;53.01;98712.83;1653494;86;21039;-85
2022/07/26 00:51:19;;;;;;;9.58;4.50;;;;;;;19.67;52.92;98706.83;1655289;86;21050;-85
2022/07/26 00:53:47;;;;;;;10.72;4.78;;;;;;;19.60;51.71;98708.22;1654858;86;21070;-83
2022/07/26 00:56:15;;;;;;;9.60;5.60;;;;;;;19.45;52.21;98696.07;1653425;86;21025;-83
2022/07/26 00:58:43;;;;;;;9.05;5.30;;;;;;;19.39;53.66;98696.49;1648944;86;21093;-82
2022/07/26 01:01:10;;;;;;;8.25;5.10;;;;;;;19.36;54.95;98704.59;1655979;86;21123;-83
2022/07/26 01:03:37;;;;;;;14.45;5.78;;;;;;;19.32;55.79;98698.70;1653740;87;21030;-83
2022/07/26 01:06:04;;;;;;;10.63;5.25;;;;;;;19.30;55.67;98699.73;1654220;87;21070;-83
2022/07/26 01:08:31;;;;;;;10.43;5.25;;;;;;;19.25;53.58;98696.94;1651506;87;21050;-83
2022/07/26 01:10:58;;;;;;;10.58;5.10;;;;;;;19.19;57.14;98693.88;1653235;86;21046;-83
2022/07/26 01:13:25;;;;;;;8.65;4.80;;;;;;;19.16;55.38;98696.25;1652218;87;21050;-83
2022/07/26 01:15:52;;;;;;;6.87;4.45;;;;;;;19.12;53.57;98699.17;1652314;87;21030;-83
2022/07/26 01:18:18;;;;;;;8.10;4.92;;;;;;;19.06;54.71;98694.70;1654469;86;21531;-83
2022/07/26 01:20:47;;;;;;;11.10;4.87;;;;;;;19.04;56.46;98693.95;1652653;85;20995;-83
2022/07/26 01:23:14;;;;;;;9.93;4.83;;;;;;;18.99;55.69;98699.99;1655799;85;21063;-83
2022/07/26 01:25:41;;;;;;;10.65;5.35;;;;;;;18.97;55.36;98695.30;1661853;86;21578;-83
2022/07/26 01:28:08;;;;;;;8.55;4.80;;;;;;;18.97;56.15;98693.14;1661035;85;21090;-84
2022/07/26 01:30:34;;;;;;;10.05;5.45;;;;;;;18.95;55.96;98689.77;1644288;86;21618;-83
2022/07/26 01:33:01;;;;;;;10.15;5.78;;;;;;;18.91;54.69;98690.44;1644982;86;21022;-83
2022/07/26 01:35:28;;;;;;;11.65;5.40;;;;;;;18.87;55.37;98686.32;1660849;85;21029;-84
2022/07/26 01:37:54;;;;;;;10.13;4.95;;;;;;;18.79;55.81;98678.05;1661877;85;21085;-84
2022/07/26 01:40:21;;;;;;;9.28;5.15;;;;;;;18.77;56.08;98682.09;1661964;86;21021;-83
2022/07/26 01:42:48;;;;;;;11.03;5.00;;;;;;;18.77;56.66;98681.25;1671723;85;21007;-83
2022/07/26 01:45:15;;;;;;;10.20;5.40;;;;;;;18.77;56.59;98686.04;1658627;86;21082;-83
2022/07/26 01:47:41;;;;;;;11.30;5.55;;;;;;;18.76;56.95;98685.69;1657408;86;21050;-83
2022/07/26 01:50:08;;;;;;;11.75;5.95;;;;;;;18.76;57.41;98683.05;1661604;86;21037;-83
2022/07/26 01:52:36;;;;;;;11.28;5.35;;;;;;;18.75;57.14;98687.93;1661495;85;21097;-82
2022/07/26 01:55:03;;;;;;;12.58;5.95;;;;;;;18.69;55.63;98693.13;1661852;86;21542;-83
2022/07/26 01:57:29;;;;;;;9.18;5.40;;;;;;;18.63;57.14;98692.68;1661669;85;21023;-83
2022/07/26 01:59:56;;;;;;;9.35;5.80;;;;;;;18.63;58.28;98692.68;1643691;85;21030;-83
2022/07/26 02:02:24;;;;;;;11.43;5.37;;;;;;;18.59;58.56;98697.30;1661684;86;21582;-83
2022/07/26 02:05:00;;;;;;;10.80;5.97;;;;;;;18.56;56.84;98691.38;1661788;86;21030;-83
2022/07/26 02:07:31;;;;;;;11.93;5.97;;;;;;;18.52;57.87;98693.83;1661949;86;21014;-83
2022/07/26 02:09:58;;;;;;;9.60;5.22;;;;;;;18.48;59.28;98690.55;1662263;85;21130;-83
2022/07/26 02:12:25;;;;;;;9.63;5.60;;;;;;;18.48;59.37;98686.59;1661625;86;21010;-83
2022/07/26 02:14:52;;;;;;;11.10;5.45;;;;;;;18.45;58.47;98686.33;1664927;85;21540;-83
2022/07/26 02:17:18;;;;;;;9.28;5.47;;;;;;;18.40;59.47;98675.27;1665430;85;21037;-82
2022/07/26 02:19:45;;;;;;;11.93;5.62;;;;;;;18.39;59.95;98680.63;1661501;86;21534;-83
2022/07/26 02:22:12;;;;;;;12.30;6.22;;;;;;;18.34;58.42;98678.75;1661362;86;21128;-83
2022/07/26 02:24:39;;;;;;;12.23;6.12;;;;;;;18.25;59.22;98678.39;1628389;86;21538;-83
2022/07/26 02:27:05;;;;;;;9.80;5.53;;;;;;;18.23;60.24;98680.28;1660934;86;21010;-83
2022/07/26 02:29:32;;;;;;;11.97;6.10;;;;;;;18.18;58.65;98686.77;1661151;86;21022;-82
2022/07/26 02:31:59;;;;;;;9.33;5.08;;;;;;;18.12;58.46;98680.58;1660912;86;21079;-83
2022/07/26 02:34:26;;;;;;;10.93;5.65;;;;;;;18.08;58.87;98671.58;1660843;86;21018;-83
2022/07/26 02:36:52;;;;;;;18.77;5.67;;;;;;;18.07;59.63;98676.92;1660922;86;21118;-83
2022/07/26 02:39:20;;;;;;;16.77;5.55;;;;;;;18.06;58.80;98680.03;1641797;85;21022;-82
2022/07/26 02:41:48;;;;;;;10.20;5.22;;;;;;;18.04;59.28;98668.73;1660999;86;21121;-83
2022/07/26 02:44:14;;;;;;;8.48;4.67;;;;;;;18.02;59.50;98671.93;1659934;85;21038;-82
2022/07/26 02:46:41;;;;;;;9.13;4.80;;;;;;;18.04;58.86;98675.31;1659788;85;21094;-81
2022/07/26 02:49:07;;;;;;;14.15;6.47;;;;;;;18.01;58.74;98676.00;1659813;85;21034;-83
2022/07/26 02:51:34;;;;;;;10.43;5.75;;;;;;;17.97;59.57;98658.24;1659637;85;21023;-82
2022/07/26 02:54:00;;;;;;;15.80;7.00;;;;;;;18.02;60.74;98662.73;1664863;85;21066;-81
2022/07/26 02:56:27;;;;;;;14.28;6.28;;;;;;;18.03;59.45;98668.38;1660220;85;21050;-82
2022/07/26 02:58:54;;;;;;;13.18;5.62;;;;;;;18.03;59.53;98675.43;1660809;86;20999;-82
2022/07/26 03:01:20;;;;;;;12.10;6.20;;;;;;;18.01;59.23;98675.52;1660680;86;21011;-82
2022/07/26 03:03:48;;;;;;;10.98;5.97;;;;;;;18.01;59.43;98668.94;1660676;86;21077;-82
2022/07/26 03:06:14;;;;;;;12.63;5.83;;;;;;;17.99;59.49;98672.63;1642883;86;21038;-82
2022/07/26 03:08:41;;;;;;;13.70;5.90;;;;;;;17.98;60.01;98677.48;1661316;86;21046;-82
2022/07/26 03:11:08;;;;;;;14.65;6.55;;;;;;;17.96;59.06;98673.63;1661125;85;21046;-82
2022/07/26 03:13:34;;;;;;;12.65;5.78;;;;;;;17.95;59.64;98681.16;1648913;86;21603;-82
2022/07/26 03:16:01;;;;;;;12.55;6.40;;;;;;;17.94;59.72;98676.83;1607450;89;21021;-83
2022/07/26 03:18:28;;;;;;;16.87;6.30;;;;;;;17.92;59.20;98671.30;1633685;88;21123;-82
2022/07/26 03:20:54;;;;;;;23.02;6.40;;;;;;;17.90;60.10;98672.70;1633243;88;21094;-82
2022/07/26 03:23:21;;;;;;;27.05;7.10;;;;;;;17.90;59.70;98675.33;1610825;88;21068;-82
2022/07/26 03:25:47;;;;;;;10.80;6.22;;;;;;;17.88;60.42;98674.58;1633513;88;21087;-83
2022/07/26 03:28:14;;;;;;;22.90;6.22;;;;;;;17.88;59.80;98678.05;1633818;88;21107;-83
2022/07/26 03:30:41;;;;;;;17.00;6.17;;;;;;;17.82;58.15;98678.88;1633639;88;21042;-83
2022/07/26 03:33:07;;;;;;;16.35;6.83;;;;;;;17.75;59.58;98673.16;1633698;88;21095;-83
2022/07/26 03:35:34;;;;;;;14.53;6.95;;;;;;;17.70;58.53;98682.62;1633803;88;21035;-83
2022/07/26 03:38:00;;;;;;;15.20;8.00;;;;;;;17.61;59.78;98683.20;1633647;88;21062;-83
2022/07/26 03:40:27;;;;;;;16.17;7.92;;;;;;;17.52;59.15;98685.53;1633970;88;21106;-82
2022/07/26 03:42:54;;;;;;;22.17;7.50;;;;;;;17.41;59.77;98683.08;1608248;88;21040;-82
2022/07/26 03:45:21;;;;;;;16.10;8.78;;;;;;;17.37;60.71;98672.82;1633797;88;21565;-83
2022/07/26 03:47:48;;;;;;;15.85;8.28;;;;;;;17.38;60.75;98673.22;1633469;87;21122;-83
2022/07/26 03:50:14;;;;;;;15.38;6.97;;;;;;;17.37;61.98;98674.14;1633811;88;21015;-83
2022/07/26 03:52:41;;;;;;;15.72;6.42;;;;;;;17.39;61.58;98669.64;1633985;88;21043;-83
2022/07/26 03:57:54;;;;;;;14.60;6.90;;;;;;;17.48;61.89;98680.92;1635462;87;20972;-83
2022/07/26 04:00:20;;;;;;;13.95;6.78;;;;;;;17.54;61.20;98674.45;1633173;88;21039;-82
2022/07/26 04:02:47;;;;;;;17.42;7.08;;;;;;;17.57;62.02;98671.66;1633535;88;21050;-84
2022/07/26 04:05:14;;;;;;;15.00;6.53;;;;;;;17.61;60.68;98668.73;1635694;87;21531;-84
2022/07/26 04:07:42;;;;;;;12.78;7.10;;;;;;;17.64;60.14;98663.28;1634321;87;21051;-83
2022/07/26 04:10:10;;;;;;;16.10;6.72;;;;;;;17.70;60.78;98666.01;1634182;88;21146;-81
2022/07/26 04:12:37;;;;;;;15.23;6.97;;;;;;;17.78;61.63;98663.75;1632117;87;21042;-81
2022/07/26 04:15:06;;;;;;;14.20;7.30;;;;;;;17.88;61.12;98666.22;1633608;88;21047;-83
2022/07/26 04:17:42;;;;;;;12.07;6.58;;;;;;;17.97;60.36;98666.13;1633812;88;21531;-83
2022/07/26 04:20:12;;;;;;;17.23;7.72;;;;;;;18.06;60.49;98662.07;1631950;87;21071;-82
2022/07/26 04:22:40;;;;;;;16.15;7.25;;;;;;;18.14;60.24;98655.02;1625063;86;21543;-83
2022/07/26 04:25:08;;;;;;;18.40;7.50;;;;;;;18.21;60.57;98657.17;1630078;88;21147;-82
2022/07/26 04:27:36;;;;;;;16.32;7.03;;;;;;;18.34;60.63;98659.01;1630189;87;21574;-81
2022/07/26 04:30:05;;;;;;;26.90;8.63;;;;;;;18.44;60.58;98650.45;1641001;87;21030;-82
2022/07/26 04:32:32;;;;;;;13.88;7.92;;;;;;;18.56;60.26;98647.94;1657084;86;21002;-83
2022/07/26 04:34:58;;;;;;;16.02;7.25;;;;;;;18.66;60.06;98649.89;1656894;86;21076;-83
2022/07/26 04:37:25;;;;;;;21.02;7.80;;;;;;;18.76;59.93;98654.09;1657331;86;21499;-81
2022/07/26 04:39:52;;;;;;;20.97;7.83;;;;;;;18.85;59.75;98656.61;1658689;86;21046;-83
2022/07/26 04:42:18;;;;;;;23.40;8.28;;;;;;;18.92;59.66;98660.98;1658829;86;21006;-82
2022/07/26 04:44:45;;;;;;;19.98;7.95;;;;;;;18.99;59.32;98658.33;1659103;86;21089;-84
2022/07/26 04:47:11;;;;;;;20.90;10.78;;;;;;;19.05;59.49;98656.59;1659592;86;21009;-84
2022/07/26 04:49:38;;;;;;;23.22;10.15;;;;;;;19.11;59.17;98658.81;1659447;86;21152;-82
2022/07/26 04:52:05;;;;;;;31.35;16.50;;;;;;;19.18;59.00;98654.84;1658420;86;21018;-82
2022/07/26 04:54:32;;;;;;;18.12;8.53;;;;;;;19.25;58.65;98659.20;1659139;86;21030;-83
2022/07/26 04:56:58;;;;;;;18.57;7.70;;;;;;;19.31;58.28;98656.63;1658564;86;21014;-83
2022/07/26 04:59:25;;;;;;;17.35;7.90;;;;;;;19.35;58.18;98662.06;1658927;86;21043;-83
2022/07/26 05:01:52;;;;;;;17.55;8.18;;;;;;;19.40;58.18;98663.92;1658320;86;21571;-82
2022/07/26 05:04:18;;;;;;;23.83;7.65;;;;;;;19.44;57.61;98659.64;1658280;86;21058;-84
2022/07/26 05:06:45;;;;;;;18.32;8.23;;;;;;;19.51;57.70;98664.02;1658593;86;20978;-83
2022/07/26 05:09:11;;;;;;;19.07;7.20;;;;;;;19.58;57.88;98663.97;1642082;86;21121;-83
2022/07/26 05:11:38;;;;;;;15.70;6.85;;;;;;;19.66;57.57;98656.38;1658022;86;21037;-83
2022/07/26 05:14:05;;;;;;;20.92;7.80;;;;;;;19.74;57.21;98656.36;1654806;86;21024;-82
2022/07/26 05:16:31;;;;;;;15.68;6.92;;;;;;;19.82;57.06;98663.25;1657643;86;21114;-82
2022/07/26 05:18:58;;;;;;;16.23;7.25;;;;;;;19.89;56.34;98669.77;1658630;86;21081;-83
2022/07/26 05:21:26;;;;;;;15.80;6.70;;;;;;;19.96;56.56;98664.44;1658185;85;21074;-83
2022/07/26 05:23:54;;;;;;;15.58;7.30;;;;;;;20.04;56.22;98667.37;1655343;86;21053;-83
2022/07/26 05:26:21;;;;;;;16.42;6.53;;;;;;;20.11;56.03;98665.62;1661362;86;21021;-83
2022/07/26 05:28:48;;;;;;;16.40;6.58;;;;;;;20.20;55.94;98661.84;1676693;85;21562;-84
2022/07/26 05:31:16;;;;;;;18.80;6.65;;;;;;;20.24;55.46;98663.31;1659844;85;21018;-83
2022/07/26 05:33:42;;;;;;;14.13;6.30;;;;;;;20.32;55.41;98661.45;1661403;86;20993;-84
2022/07/26 05:36:09;;;;;;;15.38;7.22;;;;;;;20.39;55.06;98656.55;1661867;86;21146;-81
2022/07/26 05:38:36;;;;;;;15.58;6.20;;;;;;;20.50;55.16;98653.98;1661770;86;21062;-83
2022/07/26 05:41:03;;;;;;;20.60;9.75;;;;;;;20.59;54.94;98658.64;1660832;85;21015;-83
2022/07/26 05:43:30;;;;;;;18.00;8.73;;;;;;;20.70;54.68;98659.16;1660146;85;21007;-84
2022/07/26 05:45:57;;;;;;;15.25;7.53;;;;;;;20.79;54.60;98651.02;1662641;85;21023;-82
2022/07/26 05:48:24;;;;;;;17.35;7.50;;;;;;;20.91;54.56;98654.55;1663186;86;20998;-84
2022/07/26 05:50:51;;;;;;;14.98;7.17;;;;;;;20.99;54.18;98657.45;1665453;85;21034;-84
2022/07/26 05:53:17;;;;;;;18.48;7.58;;;;;;;21.06;53.86;98648.12;1661667;86;21006;-83
2022/07/26 05:55:44;;;;;;;13.80;7.08;;;;;;;21.15;53.68;98639.51;1661265;85;21098;-83
2022/07/26 05:58:11;;;;;;;13.98;6.65;;;;;;;21.23;53.51;98641.09;1661514;85;21033;-83
2022/07/26 06:00:38;;;;;;;12.35;6.20;;;;;;;21.33;53.38;98641.68;1661457;86;21061;-83
2022/07/26 06:03:22;;;;;;;15.05;6.80;;;;;;;21.43;53.12;98631.66;1661335;85;21546;-82
2022/07/26 06:05:53;;;;;;;13.98;6.35;;;;;;;21.54;52.76;98634.77;1661233;85;21109;-83
2022/07/26 06:08:21;;;;;;;13.30;6.70;;;;;;;21.65;52.41;98638.76;1661422;85;21600;-83
2022/07/26 06:10:48;;;;;;;12.13;5.90;;;;;;;21.75;52.27;98636.23;1661164;86;21057;-83
2022/07/26 06:13:16;;;;;;;12.55;6.33;;;;;;;21.89;52.04;98639.61;1664554;83;21033;-85
2022/07/26 06:15:44;;;;;;;11.38;6.08;;;;;;;21.97;51.86;98642.00;1660543;85;21058;-86
2022/07/26 06:18:12;;;;;;;14.40;6.12;;;;;;;22.08;51.73;98635.00;1661956;85;21043;-84
2022/07/26 06:20:40;;;;;;;13.13;6.50;;;;;;;22.19;51.41;98634.50;1661125;86;21060;-85
2022/07/26 06:23:06;;;;;;;14.45;6.20;;;;;;;22.29;51.15;98625.38;1660476;85;21089;-83
2022/07/26 06:25:33;;;;;;;11.45;5.95;;;;;;;22.38;50.61;98630.39;1647618;85;21622;-85
2022/07/26 06:28:03;;;;;;;16.02;5.87;;;;;;;22.44;49.87;98633.86;1649782;86;21062;-83
2022/07/26 06:30:30;;;;;;;13.25;5.95;;;;;;;22.46;50.04;98632.42;1650350;87;21101;-84
2022/07/26 06:32:56;;;;;;;13.53;5.72;;;;;;;22.51;50.08;98623.14;1647018;86;21022;-85
2022/07/26 06:35:23;;;;;;;11.05;5.40;;;;;;;22.60;49.75;98622.86;1649536;87;21055;-85
2022/07/26 06:37:50;;;;;;;10.25;6.08;;;;;;;22.66;49.23;98619.73;1652507;87;21053;-86
2022/07/26 06:40:17;;;;;;;14.80;7.50;;;;;;;22.74;48.96;98623.91;1650728;87;21041;-85
2022/07/26 06:42:46;;;;;;;20.68;9.40;;;;;;;22.79;48.67;98617.72;1626958;87;21143;-84
2022/07/26 06:45:13;;;;;;;17.55;7.58;;;;;;;22.84;48.41;98611.57;1648288;86;21409;-84
2022/07/26 06:47:42;;;;;;;12.53;6.83;;;;;;;22.90;48.29;98609.36;1629654;87;21143;-81
2022/07/26 06:50:09;;;;;;;12.63;6.67;;;;;;;22.94;48.09;98601.50;1650217;87;21061;-85
2022/07/26 06:52:36;;;;;;;12.60;6.28;;;;;;;23.02;47.99;98599.94;1604167;88;21070;-84
2022/07/26 06:55:05;;;;;;;11.57;5.62;;;;;;;23.07;47.67;98595.56;1592718;90;21070;-83
2022/07/26 06:57:34;;;;;;;12.82;5.62;;;;;;;23.12;47.41;98596.48;1622738;87;21514;-84
2022/07/26 07:00:03;;;;;;;19.23;6.20;;;;;;;23.17;47.28;98593.80;1625006;87;21095;-84
2022/07/26 07:02:30;;;;;;;10.10;5.75;;;;;;;23.25;46.90;98597.63;1620567;87;21040;-82
2022/07/26 07:04:57;;;;;;;13.72;5.90;;;;;;;23.36;47.15;98590.92;1621831;87;20993;-83
2022/07/26 07:07:24;;;;;;;10.25;5.37;;;;;;;23.46;46.88;98594.92;1622783;87;21004;-85
2022/07/26 07:09:51;;;;;;;11.88;5.12;;;;;;;23.54;46.31;98592.48;1583865;89;21099;-85
2022/07/26 07:12:18;;;;;;;9.20;5.58;;;;;;;23.63;46.39;98589.00;1605640;88;21053;-82
2022/07/26 07:14:45;;;;;;;9.58;5.47;;;;;;;23.72;46.17;98590.03;1582925;89;21118;-85
2022/07/26 07:17:12;;;;;;;13.50;5.83;;;;;;;23.83;45.94;98587.28;1623527;88;21023;-86
2022/07/26 07:19:38;;;;;;;11.48;5.10;;;;;;;23.95;45.75;98590.18;1626306;87;21059;-82
2022/07/26 07:22:10;;;;;;;11.93;5.40;;;;;;;24.06;45.24;98584.44;1598844;88;21002;-82
2022/07/26 07:24:35;;;;;;;17.00;6.30;;;;;;;24.17;45.36;98582.50;1621878;87;21922;-84
2022/07/26 07:27:01;;;;;;;21.17;11.25;;;;;;;24.26;45.03;98580.82;1637229;86;21068;-83
2022/07/26 07:29:28;;;;;;;13.15;7.53;;;;;;;24.36;44.52;98571.53;1610542;88;21054;-85
2022/07/26 07:31:55;;;;;;;14.00;5.85;;;;;;;24.47;44.60;98579.84;1626059;86;21089;-82
2022/07/26 07:34:22;;;;;;;16.17;5.20;;;;;;;24.60;43.78;98579.12;1625192;87;21007;-84
2022/07/26 07:36:50;;;;;;;10.32;5.12;;;;;;;24.70;43.18;98569.81;1629556;86;21089;-84
2022/07/26 07:39:18;;;;;;;9.65;5.10;;;;;;;24.79;42.51;98578.29;1629074;86;21589;-84
2022/07/26 07:41:45;;;;;;;12.50;5.12;;;;;;;24.89;41.88;98571.60;1629298;86;21582;-84
2022/07/26 07:44:13;;;;;;;10.80;4.90;;;;;;;24.98;41.34;98572.92;1633682;87;21371;-83
2022/07/26 07:46:40;;;;;;;10.08;4.78;;;;;;;25.12;42.21;98567.64;1632504;86;21583;-83
2022/07/26 07:49:07;;;;;;;14.60;4.90;;;;;;;25.22;42.15;98567.65;1631001;88;21066;-84
2022/07/26 07:51:33;;;;;;;10.63;4.58;;;;;;;25.32;40.91;98568.45;1627818;86;21113;-83
2022/07/26 07:54:00;;;;;;;12.53;4.80;;;;;;;25.43;41.02;98562.59;1628217;87;21146;-83
2022/07/26 07:56:27;;;;;;;7.53;4.70;;;;;;;25.55;40.53;98569.44;1629217;87;21064;-83
2022/07/26 07:58:53;;;;;;;7.85;4.70;;;;;;;25.64;40.29;98562.38;1627029;87;21092;-84
2022/07/26 08:01:19;;;;;;;10.23;4.35;;;;;;;25.73;40.68;98561.00;1634011;86;21080;-84
2022/07/26 08:03:46;;;;;;;8.13;4.08;;;;;;;25.87;40.30;98564.16;1630349;87;21051;-81
2022/07/26 08:06:13;;;;;;;7.17;3.95;;;;;;;25.98;39.89;98550.66;1621081;87;21075;-83
2022/07/26 08:08:40;;;;;;;9.90;4.30;;;;;;;26.12;39.62;98555.97;1630560;87;21520;-83
2022/07/26 08:11:06;;;;;;;7.28;4.28;;;;;;;26.22;39.36;98555.40;1627154;88;21000;-84
2022/07/26 08:13:34;;;;;;;6.75;4.20;;;;;;;26.34;38.86;98555.55;1634244;87;21563;-83
2022/07/26 08:16:00;;;;;;;9.40;4.20;;;;;;;26.47;38.72;98548.98;1636357;86;21553;-80
2022/07/26 08:18:27;;;;;;;14.60;5.03;;;;;;;26.62;38.34;98543.49;1625847;87;21605;-83
2022/07/26 08:20:54;;;;;;;5.95;3.92;;;;;;;26.75;38.48;98541.23;1628743;87;21057;-84
2022/07/26 08:23:21;;;;;;;6.78;3.83;;;;;;;26.91;37.08;98549.03;1629397;86;21074;-81
2022/07/26 08:25:48;;;;;;;11.18;4.95;;;;;;;27.05;37.36;98540.95;1625701;87;21098;-82
2022/07/26 08:28:15;;;;;;;9.18;5.55;;;;;;;27.18;37.29;98531.53;1631492;87;21081;-83
2022/07/26 08:30:42;;;;;;;7.80;4.62;;;;;;;27.35;37.46;98540.48;1602828;88;21148;-84
2022/07/26 08:33:09;;;;;;;11.30;5.05;;;;;;;27.51;37.09;98536.22;1623365;87;21057;-81
2022/07/26 08:35:35;;;;;;;9.28;5.25;;;;;;;27.61;36.15;98532.92;1621953;87;21081;-83
2022/07/26 08:38:02;;;;;;;6.97;4.30;;;;;;;27.72;36.69;98530.47;1616697;88;21043;-82
2022/07/26 08:40:28;;;;;;;8.33;4.70;;;;;;;27.86;36.59;98531.69;1618203;88;21085;-83
2022/07/26 08:42:56;;;;;;;7.55;4.47;;;;;;;28.01;36.43;98531.40;1595132;88;21608;-84
2022/07/26 08:45:30;;;;;;;8.50;4.20;;;;;;;28.14;36.15;98533.11;1622771;87;21019;-83
2022/07/26 08:47:59;;;;;;;6.65;3.87;;;;;;;28.29;35.45;98536.45;1629191;87;21070;-82
2022/07/26 08:50:28;;;;;;;7.67;4.03;;;;;;;28.39;35.17;98530.95;1601222;89;21024;-82
2022/07/26 08:53:05;;;;;;;7.20;4.22;;;;;;;28.49;35.39;98532.96;1614750;88;21117;-81
2022/07/26 08:55:32;;;;;;;8.30;4.10;;;;;;;28.60;35.21;98532.67;1626989;87;21039;-83
2022/07/26 08:58:04;;;;;;;7.60;4.87;;;;;;;28.68;35.30;98523.30;1601863;89;21084;-82
2022/07/26 09:00:31;;;;;;;11.63;5.10;;;;;;;28.82;35.43;98526.31;1628050;87;21082;-84
2022/07/26 09:03:00;;;;;;;15.63;4.55;;;;;;;28.96;35.33;98525.61;1626726;87;21407;-83
2022/07/26 09:05:32;;;;;;;8.30;4.55;;;;;;;29.10;35.07;98522.74;1599405;88;21104;-83
2022/07/26 09:08:00;;;;;;;8.78;4.28;;;;;;;29.19;35.25;98516.41;1627588;87;21121;-83
2022/07/26 09:10:31;;;;;;;8.35;4.47;;;;;;;29.33;35.21;98510.84;1633623;87;21062;-82
2022/07/26 09:12:58;;;;;;;9.08;4.45;;;;;;;29.44;35.06;98506.94;1630955;87;21103;-84
2022/07/26 09:15:27;;;;;;;8.45;4.30;;;;;;;29.52;34.75;98513.08;1631519;87;21209;-82
2022/07/26 09:17:56;;;;;;;7.12;4.50;;;;;;;29.52;33.70;98510.41;1628428;87;21060;-82
2022/07/26 09:20:27;;;;;;;6.50;4.12;;;;;;;29.50;33.93;98517.78;1596391;89;21100;-80
2022/07/26 09:23:10;;;;;;;8.48;4.45;;;;;;;29.57;34.03;98513.09;1628644;87;21051;-81
2022/07/26 09:25:41;;;;;;;8.20;4.62;;;;;;;29.67;34.09;98513.71;1624094;87;21077;-82
2022/07/26 09:28:28;;;;;;;7.45;4.42;;;;;;;29.81;33.62;98510.83;1627255;87;21011;-84
2022/07/26 09:30:58;;;;;;;10.90;4.70;;;;;;;29.91;33.50;98512.26;1627920;87;21410;-84
2022/07/26 09:33:25;;;;;;;8.08;4.33;;;;;;;30.03;32.62;98505.98;1621649;88;21093;-84
2022/07/26 09:36:06;;;;;;;6.42;4.05;;;;;;;30.11;32.51;98502.42;1628008;88;21047;-81
2022/07/26 09:38:46;;;;;;;7.17;4.22;;;;;;;30.19;32.37;98503.70;1627478;87;21079;-83
2022/07/26 09:41:29;;;;;;;7.60;3.95;;;;;;;30.29;32.45;98500.27;1632951;88;21106;-81
2022/07/26 09:44:00;;;;;;;7.78;4.12;;;;;;;30.38;32.41;98497.55;1625992;88;22729;-82
2022/07/26 09:46:30;;;;;;;7.15;4.25;;;;;;;30.50;31.99;98501.47;1632256;87;21113;-82
2022/07/26 09:48:59;;;;;;;8.83;4.20;;;;;;;30.56;31.32;98495.41;1627149;87;21039;-83
2022/07/26 09:51:45;;;;;;;7.80;3.98;;;;;;;30.57;31.73;98483.65;1602224;87;21130;-84
2022/07/26 09:54:19;;;;;;;8.23;4.20;;;;;;;30.72;31.64;98493.91;1626823;87;21106;-84
2022/07/26 09:56:50;;;;;;;7.60;4.45;;;;;;;30.90;31.49;98493.59;1625917;87;21055;-85
2022/07/26 09:59:21;;;;;;;6.25;4.15;;;;;;;31.00;30.85;98493.33;1626360;87;21102;-83
2022/07/26 10:01:50;;;;;;;6.42;3.87;;;;;;;31.06;30.32;98490.42;1623409;87;21227;-84
2022/07/26 10:04:18;;;;;;;8.70;4.33;;;;;;;31.08;29.79;98491.89;1624976;87;21098;-84
2022/07/26 10:06:45;;;;;;;6.22;4.05;;;;;;;31.14;29.34;98478.25;1629601;86;21107;-81
2022/07/26 10:09:14;;;;;;;9.75;4.20;;;;;;;31.21;28.98;98472.95;1633515;86;20973;-82
2022/07/26 10:12:05;;;;;;;7.65;4.12;;;;;;;31.24;29.54;98477.45;1630714;87;21572;-81
2022/07/26 10:14:37;;;;;;;9.03;4.20;;;;;;;31.38;29.56;98480.31;1622282;86;21027;-81
2022/07/26 10:17:39;;;;;;;9.38;4.42;;;;;;;31.50;29.21;98479.67;1593941;88;28630;-83
2022/07/26 10:20:09;;;;;;;7.50;4.28;;;;;;;31.73;28.07;98475.17;1627481;86;21070;-84
2022/07/26 10:22:46;;;;;;;7.90;4.05;;;;;;;31.84;27.15;98467.97;1633449;87;21049;-84
2022/07/26 10:25:24;;;;;;;9.65;4.55;;;;;;;31.84;27.22;98469.31;1628134;87;21523;-84
2022/07/26 10:27:56;;;;;;;9.25;4.28;;;;;;;31.95;27.23;98459.90;1629548;88;21094;-84
2022/07/26 10:30:26;;;;;;;6.67;3.95;;;;;;;32.08;27.04;98464.92;1611252;88;22234;-86
2022/07/26 10:33:03;;;;;;;6.15;3.67;;;;;;;32.13;27.02;98454.93;1612674;88;21100;-82
2022/07/26 10:35:35;;;;;;;8.33;4.30;;;;;;;32.21;27.16;98456.17;1635729;87;21056;-82
2022/07/26 10:38:06;;;;;;;8.68;4.12;;;;;;;32.36;27.33;98445.84;1607188;88;21107;-83
2022/07/26 10:40:35;;;;;;;5.85;3.92;;;;;;;32.49;27.52;98445.92;1599375;88;21064;-81
2022/07/26 10:43:14;;;;;;;7.78;4.10;;;;;;;32.64;27.57;98438.63;1633006;86;21388;-83
2022/07/26 10:45:42;;;;;;;8.50;4.40;;;;;;;32.79;26.79;98434.98;1627435;87;21051;-81
2022/07/26 10:48:19;;;;;;;8.40;4.17;;;;;;;32.79;25.80;98428.26;1625940;87;21553;-82
2022/07/26 10:50:50;;;;;;;6.75;4.03;;;;;;;32.73;26.24;98430.39;1620576;87;21091;-82
2022/07/26 10:53:23;;;;;;;6.87;3.70;;;;;;;32.84;26.55;98428.51;1625645;87;21010;-83
2022/07/26 10:55:56;;;;;;;12.25;4.85;;;;;;;32.97;26.19;98423.20;1629673;87;21076;-83
2022/07/26 10:58:25;;;;;;;12.30;4.20;;;;;;;33.05;24.83;98421.69;1630897;86;21022;-82
2022/07/26 11:01:01;;;;;;;6.53;3.83;;;;;;;33.09;25.31;98424.86;1633140;88;21095;-85
2022/07/26 11:03:40;;;;;;;6.85;4.00;;;;;;;33.17;24.83;98417.95;1632785;87;21078;-83
2022/07/26 11:06:14;;;;;;;5.33;3.90;;;;;;;33.24;24.95;98417.45;1626113;88;21152;-84
2022/07/26 11:08:42;;;;;;;5.67;3.50;;;;;;;33.41;24.82;98418.47;1624701;88;21011;-84
2022/07/26 11:11:08;;;;;;;8.98;4.17;;;;;;;33.56;24.95;98411.02;1632139;87;21853;-87
2022/07/26 11:13:36;;;;;;;7.05;4.12;;;;;;;33.76;24.73;98413.80;1623139;87;21012;-86
2022/07/26 11:16:06;;;;;;;7.50;4.30;;;;;;;33.90;23.69;98413.83;1608394;88;20972;-86
2022/07/26 11:18:38;;;;;;;6.15;4.15;;;;;;;33.98;23.61;98405.53;1609943;86;21110;-86
2022/07/26 11:21:16;;;;;;;5.90;4.30;;;;;;;34.01;23.37;98400.56;1633529;87;21090;-86
2022/07/26 11:23:46;;;;;;;6.90;4.10;;;;;;;34.06;23.73;98395.40;1634001;86;21138;-87
2022/07/26 11:26:20;;;;;;;7.22;3.90;;;;;;;34.19;22.48;98386.49;1631699;86;21056;-85
2022/07/26 11:28:58;;;;;;;7.40;3.70;;;;;;;34.33;22.87;98387.84;1632608;86;21376;-85
2022/07/26 11:31:43;;;;;;;6.17;3.80;;;;;;;34.39;23.19;98377.56;1637678;87;21002;-85
2022/07/26 11:34:23;;;;;;;5.70;4.00;;;;;;;34.53;23.35;98375.67;1627222;88;21099;-84
2022/07/26 11:36:53;;;;;;;7.08;3.85;;;;;;;34.73;22.40;98363.52;1626840;88;20956;-84
2022/07/26 11:39:28;;;;;;;6.17;3.98;;;;;;;34.84;22.96;98370.44;1630430;87;21050;-84